createdAt,value
2022-12-16T00:01:32.223Z,32.97
2022-12-16T00:04:00.155Z,34.80
2022-12-16T00:06:28.743Z,29.55
2022-12-16T00:08:57.034Z,35.45
2022-12-16T00:11:24.663Z,29.65
2022-12-16T00:13:52.273Z,35.55
2022-12-16T00:16:20.883Z,30.35
2022-12-16T00:18:48.742Z,36.83
2022-12-16T00:21:18.863Z,32.08
2022-12-16T00:23:46.625Z,34.38
2022-12-16T00:26:14.646Z,33.55
2022-12-16T00:28:44.092Z,32.40
2022-12-16T00:31:12.375Z,31.10
2022-12-16T00:33:40.223Z,30.83
2022-12-16T00:36:08.044Z,30.42
2022-12-16T00:38:36.090Z,24.50
2022-12-16T00:41:03.726Z,31.95
2022-12-16T00:43:32.037Z,31.88
2022-12-16T00:45:59.857Z,33.55
2022-12-16T00:48:27.239Z,31.58
2022-12-16T00:50:55.656Z,33.97
2022-12-16T00:53:24.349Z,34.92
2022-12-16T00:55:52.243Z,29.15
2022-12-16T00:58:19.897Z,30.13
2022-12-16T01:00:47.529Z,32.03
2022-12-16T01:03:21.115Z,32.45
2022-12-16T01:05:49.245Z,29.73
2022-12-16T01:08:17.022Z,33.22
2022-12-16T01:10:50.424Z,31.13
2022-12-16T01:13:18.133Z,33.75
2022-12-16T01:15:45.696Z,28.50
2022-12-16T01:18:13.435Z,30.50
2022-12-16T01:20:41.105Z,25.85
2022-12-16T01:23:09.308Z,28.80
2022-12-16T01:25:36.983Z,29.40
2022-12-16T01:28:04.548Z,29.60
2022-12-16T01:30:32.348Z,36.08
2022-12-16T01:32:59.806Z,34.65
2022-12-16T01:35:52.593Z,29.23
2022-12-16T01:38:15.751Z,31.10
2022-12-16T01:40:43.244Z,32.60
2022-12-16T01:43:12.556Z,34.67
2022-12-16T01:45:40.139Z,32.03
2022-12-16T01:48:27.630Z,33.28
2022-12-16T01:50:58.633Z,34.45
2022-12-16T01:53:26.102Z,34.22
2022-12-16T01:55:54.371Z,33.85
2022-12-16T01:58:23.951Z,34.63
2022-12-16T02:00:51.751Z,33.55
2022-12-16T02:03:19.498Z,34.60
2022-12-16T02:05:47.927Z,40.58
2022-12-16T02:08:35.279Z,34.25
2022-12-16T02:11:22.941Z,33.30
2022-12-16T02:14:10.369Z,37.22
2022-12-16T02:16:57.775Z,29.35
2022-12-16T02:19:45.349Z,32.83
2022-12-16T02:22:32.787Z,34.88
2022-12-16T02:25:20.267Z,36.45
2022-12-16T02:27:59.937Z,35.00
2022-12-16T02:30:47.220Z,32.78
2022-12-16T02:33:35.041Z,34.33
2022-12-16T02:36:23.158Z,36.15
2022-12-16T02:38:56.858Z,33.20
2022-12-16T02:41:33.260Z,35.08
2022-12-16T02:44:09.115Z,37.80
2022-12-16T02:46:45.291Z,36.85
2022-12-16T02:49:32.814Z,33.80
2022-12-16T02:52:01.895Z,37.40
2022-12-16T02:54:29.984Z,33.28
2022-12-16T02:57:17.472Z,34.42
2022-12-16T03:00:04.912Z,35.63
2022-12-16T03:02:52.509Z,34.70
2022-12-16T03:05:25.203Z,34.65
2022-12-16T03:07:53.493Z,33.60
2022-12-16T03:10:22.734Z,40.58
2022-12-16T03:12:50.249Z,36.58
2022-12-16T03:15:20.095Z,34.47
2022-12-16T03:17:49.138Z,36.40
2022-12-16T03:20:19.356Z,36.80
2022-12-16T03:22:48.045Z,38.35
2022-12-16T03:25:15.957Z,31.98
2022-12-16T03:28:04.232Z,34.47
2022-12-16T03:30:35.994Z,32.13
2022-12-16T03:33:10.552Z,35.63
2022-12-16T03:35:40.281Z,36.25
2022-12-16T03:38:09.944Z,38.80
2022-12-16T03:40:39.024Z,33.33
2022-12-16T03:43:07.019Z,33.50
2022-12-16T03:45:38.402Z,39.67
2022-12-16T03:48:08.592Z,38.03
2022-12-16T03:50:36.489Z,36.72
2022-12-16T03:53:04.435Z,39.95
2022-12-16T03:55:32.223Z,41.45
2022-12-16T03:57:59.687Z,38.20
2022-12-16T04:00:27.059Z,39.45
2022-12-16T04:02:54.717Z,37.53
2022-12-16T04:05:22.437Z,35.55
2022-12-16T04:07:49.879Z,36.70
2022-12-16T04:10:17.535Z,39.42
2022-12-16T04:13:04.737Z,34.30
2022-12-16T04:15:52.122Z,35.17
2022-12-16T04:18:40.746Z,36.40
2022-12-16T04:21:28.031Z,35.83
2022-12-16T04:24:17.746Z,35.67
2022-12-16T04:27:04.943Z,37.20
2022-12-16T04:29:32.554Z,37.97
2022-12-16T04:32:00.695Z,38.40
2022-12-16T04:34:29.472Z,36.92
2022-12-16T04:37:19.250Z,35.85
2022-12-16T04:40:06.761Z,35.47
2022-12-16T04:42:54.107Z,38.05
2022-12-16T04:45:41.493Z,38.00
2022-12-16T04:48:28.884Z,37.78
2022-12-16T04:51:16.196Z,36.90
2022-12-16T04:54:03.504Z,38.97
2022-12-16T04:56:50.829Z,41.17
2022-12-16T04:59:38.116Z,42.00
2022-12-16T05:02:25.602Z,39.53
2022-12-16T05:05:13.089Z,39.08
2022-12-16T05:08:00.895Z,41.90
2022-12-16T05:10:48.181Z,39.20
2022-12-16T05:13:35.671Z,40.13
2022-12-16T05:16:23.152Z,39.53
2022-12-16T05:19:10.488Z,39.72
2022-12-16T05:21:57.702Z,39.42
2022-12-16T05:24:48.536Z,35.83
2022-12-16T05:27:39.951Z,34.75
2022-12-16T05:30:33.400Z,36.05
2022-12-16T05:33:21.069Z,35.65
2022-12-16T05:36:08.605Z,37.40
2022-12-16T05:38:55.930Z,40.60
2022-12-16T05:41:43.251Z,37.88
2022-12-16T05:44:30.502Z,39.53
2022-12-16T05:47:17.889Z,37.13
2022-12-16T05:50:05.276Z,40.60
2022-12-16T05:52:52.571Z,40.08
2022-12-16T05:55:39.788Z,40.33
2022-12-16T05:58:27.162Z,38.63
2022-12-16T06:01:14.466Z,44.38
2022-12-16T06:04:01.953Z,45.35
2022-12-16T06:06:49.440Z,39.20
2022-12-16T06:09:36.748Z,35.70
2022-12-16T06:12:24.962Z,38.65
2022-12-16T06:15:12.335Z,40.60
2022-12-16T06:18:02.906Z,35.35
2022-12-16T06:20:50.285Z,39.97
2022-12-16T06:23:37.742Z,38.13
2022-12-16T06:26:25.480Z,37.80
2022-12-16T06:29:12.804Z,35.28
2022-12-16T06:32:00.209Z,34.60
2022-12-16T06:34:47.562Z,38.80
2022-12-16T06:37:34.893Z,36.05
2022-12-16T06:40:22.273Z,41.22
2022-12-16T06:43:09.573Z,39.50
2022-12-16T06:45:57.010Z,37.92
2022-12-16T06:48:44.344Z,42.25
2022-12-16T06:51:31.647Z,38.88
2022-12-16T06:54:39.174Z,36.78
2022-12-16T06:57:26.415Z,39.97
2022-12-16T07:00:13.687Z,39.97
2022-12-16T07:03:01.026Z,43.80
2022-12-16T07:05:48.493Z,79.75
2022-12-16T07:08:35.785Z,46.63
2022-12-16T07:11:23.071Z,43.80
2022-12-16T07:14:10.438Z,47.15
2022-12-16T07:16:58.019Z,37.40
2022-12-16T07:19:45.289Z,37.53
2022-12-16T07:22:32.648Z,38.13
2022-12-16T07:25:19.934Z,37.85
2022-12-16T07:28:13.693Z,36.60
2022-12-16T07:31:03.542Z,40.25
2022-12-16T07:33:50.925Z,36.80
2022-12-16T07:36:38.255Z,35.78
2022-12-16T07:39:25.959Z,37.67
2022-12-16T07:42:13.196Z,35.17
2022-12-16T07:45:00.544Z,37.90
2022-12-16T07:47:47.815Z,38.63
2022-12-16T07:50:35.132Z,41.28
2022-12-16T07:53:22.509Z,43.08
2022-12-16T07:56:09.831Z,39.40
2022-12-16T07:58:57.189Z,38.90
2022-12-16T08:01:44.641Z,37.55
2022-12-16T08:04:32.076Z,37.67
2022-12-16T08:07:19.371Z,41.17
2022-12-16T08:10:06.650Z,39.83
2022-12-16T08:12:54.017Z,41.90
2022-12-16T08:15:41.299Z,42.25
2022-12-16T08:18:28.520Z,42.45
2022-12-16T08:21:16.447Z,41.30
2022-12-16T08:24:03.678Z,42.75
2022-12-16T08:26:51.018Z,40.05
2022-12-16T08:29:45.760Z,40.78
2022-12-16T08:32:33.957Z,41.97
2022-12-16T08:35:21.662Z,41.70
2022-12-16T08:38:13.836Z,41.95
2022-12-16T08:41:01.994Z,42.85
2022-12-16T08:43:51.535Z,42.78
2022-12-16T08:46:39.174Z,39.58
2022-12-16T08:49:26.790Z,41.22
2022-12-16T08:52:14.444Z,42.20
2022-12-16T08:55:01.703Z,40.00
2022-12-16T08:57:49.065Z,37.35
2022-12-16T09:00:36.552Z,38.42
2022-12-16T09:03:24.413Z,36.58
2022-12-16T09:06:11.734Z,34.60
2022-12-16T09:08:59.015Z,35.88
2022-12-16T09:11:46.339Z,34.83
2022-12-16T09:14:33.626Z,36.47
2022-12-16T09:17:21.006Z,37.65
2022-12-16T09:20:08.306Z,37.17
2022-12-16T09:22:55.624Z,39.22
2022-12-16T09:25:42.909Z,37.05
2022-12-16T09:28:30.149Z,42.03
2022-12-16T09:31:17.467Z,38.38
2022-12-16T09:34:04.804Z,38.35
2022-12-16T09:36:52.031Z,39.20
2022-12-16T09:39:40.003Z,39.10
2022-12-16T09:42:47.120Z,33.17
2022-12-16T09:45:44.719Z,34.33
2022-12-16T09:48:35.796Z,33.85
2022-12-16T09:51:24.722Z,34.90
2022-12-16T09:54:13.032Z,40.83
2022-12-16T09:57:00.380Z,39.33
2022-12-16T09:59:50.829Z,39.65
2022-12-16T10:02:39.246Z,39.80
2022-12-16T10:05:31.920Z,37.50
2022-12-16T10:08:39.090Z,35.33
2022-12-16T10:11:39.223Z,34.30
2022-12-16T10:14:30.296Z,37.05
2022-12-16T10:17:27.993Z,38.22
2022-12-16T10:20:35.062Z,35.65
2022-12-16T10:23:42.161Z,34.67
2022-12-16T10:26:35.484Z,33.00
2022-12-16T10:29:31.897Z,34.95
2022-12-16T10:32:19.345Z,40.42
2022-12-16T10:35:06.986Z,33.17
2022-12-16T10:37:55.558Z,36.63
2022-12-16T10:40:45.314Z,35.03
2022-12-16T10:43:36.027Z,35.05
2022-12-16T10:46:26.829Z,35.33
2022-12-16T10:49:14.197Z,40.92
2022-12-16T10:52:05.411Z,42.33
2022-12-16T10:55:01.158Z,39.80
2022-12-16T10:58:08.305Z,35.03
2022-12-16T11:01:15.841Z,41.85
2022-12-16T11:04:03.307Z,37.72
2022-12-16T11:06:59.357Z,39.35
2022-12-16T11:09:51.245Z,39.00
2022-12-16T11:12:58.352Z,37.88
2022-12-16T11:15:48.108Z,42.97
2022-12-16T11:18:37.142Z,40.47
2022-12-16T11:21:25.759Z,42.67
2022-12-16T11:24:25.876Z,42.65
2022-12-16T11:27:14.041Z,43.15
2022-12-16T11:30:10.765Z,45.50
2022-12-16T11:32:58.686Z,42.20
2022-12-16T11:35:47.956Z,40.42
2022-12-16T11:38:44.552Z,44.05
2022-12-16T11:41:37.104Z,40.83
2022-12-16T11:44:24.814Z,39.35
2022-12-16T11:47:12.494Z,36.75
2022-12-16T11:49:59.877Z,37.28
2022-12-16T11:52:47.264Z,36.30
2022-12-16T11:56:05.823Z,36.92
2022-12-16T11:59:14.976Z,37.20
2022-12-16T12:02:20.225Z,36.35
2022-12-16T12:05:10.012Z,39.17
2022-12-16T12:08:11.578Z,42.58
2022-12-16T12:11:18.774Z,38.80
2022-12-16T12:14:25.816Z,39.83
2022-12-16T12:17:23.558Z,39.75
2022-12-16T12:20:30.714Z,43.75
2022-12-16T12:23:23.327Z,45.08
2022-12-16T12:26:30.437Z,37.85
2022-12-16T12:29:37.668Z,38.20
2022-12-16T12:32:44.898Z,40.13
2022-12-16T12:35:41.067Z,42.85
2022-12-16T12:41:35.263Z,37.83
2022-12-16T12:44:36.461Z,45.78
2022-12-16T12:47:31.265Z,42.78
2022-12-16T12:50:23.888Z,41.90
2022-12-16T12:53:31.416Z,45.45
2022-12-16T12:56:26.632Z,46.50
2022-12-16T12:59:15.879Z,48.40
2022-12-16T13:02:04.424Z,46.40
2022-12-16T13:04:53.424Z,45.42
2022-12-16T13:07:41.031Z,45.67
2022-12-16T13:10:48.170Z,48.15
2022-12-16T13:13:53.974Z,48.75
2022-12-16T13:17:02.866Z,51.00
2022-12-16T13:20:09.484Z,51.97
2022-12-16T13:22:57.534Z,51.47
2022-12-16T13:26:04.718Z,56.58
2022-12-16T13:28:53.717Z,52.45
2022-12-16T13:31:41.381Z,51.90
2022-12-16T13:34:45.132Z,52.13
2022-12-16T13:37:44.076Z,54.78
2022-12-16T13:40:51.284Z,52.15
2022-12-16T13:43:58.505Z,51.90
2022-12-16T13:46:59.609Z,57.72
2022-12-16T13:50:06.761Z,54.08
2022-12-16T13:53:14.296Z,54.58
2022-12-16T13:56:05.711Z,57.92
2022-12-16T13:58:58.946Z,50.20
2022-12-16T14:01:57.509Z,56.88
2022-12-16T14:04:49.355Z,53.08
2022-12-16T14:07:37.992Z,53.60
2022-12-16T14:10:25.875Z,57.22
2022-12-16T14:13:17.581Z,51.70
2022-12-16T14:16:24.719Z,54.22
2022-12-16T14:19:32.108Z,48.60
2022-12-16T14:22:39.226Z,51.58
2022-12-16T14:25:28.645Z,48.10
2022-12-16T14:28:15.887Z,51.80
2022-12-16T14:31:03.249Z,45.90
2022-12-16T14:33:50.766Z,49.03
2022-12-16T14:36:58.097Z,49.53
2022-12-16T14:40:00.917Z,47.25
2022-12-16T14:42:49.263Z,48.38
2022-12-16T14:45:42.428Z,45.45
2022-12-16T14:48:35.270Z,46.13
2022-12-16T14:51:42.376Z,48.83
2022-12-16T14:54:49.506Z,49.65
2022-12-16T14:57:38.402Z,66.28
2022-12-16T15:00:45.648Z,62.20
2022-12-16T15:03:42.292Z,46.33
2022-12-16T15:06:34.826Z,39.08
2022-12-16T15:09:25.053Z,42.55
2022-12-16T15:12:13.521Z,44.47
2022-12-16T15:15:01.779Z,46.33
2022-12-16T15:17:56.839Z,44.22
2022-12-16T15:20:47.426Z,42.88
2022-12-16T15:23:43.196Z,43.60
2022-12-16T15:26:30.992Z,41.05
2022-12-16T15:29:18.259Z,38.83
2022-12-16T15:32:05.598Z,43.45
2022-12-16T15:35:07.430Z,41.45
2022-12-16T15:38:04.105Z,40.83
2022-12-16T15:40:52.881Z,37.33
2022-12-16T15:43:42.297Z,40.60
2022-12-16T15:46:37.249Z,36.95
2022-12-16T15:49:24.809Z,43.80
2022-12-16T15:52:12.443Z,38.70
2022-12-16T15:55:15.392Z,41.50
2022-12-16T15:58:15.840Z,43.28
2022-12-16T16:01:16.941Z,39.58
2022-12-16T16:04:12.670Z,38.13
2022-12-16T16:07:02.121Z,35.03
2022-12-16T16:09:51.000Z,35.75
2022-12-16T16:12:40.416Z,34.75
2022-12-16T16:15:29.503Z,35.33
2022-12-16T16:18:18.341Z,28.15
2022-12-16T16:21:05.802Z,32.70
2022-12-16T16:23:53.187Z,31.15
2022-12-16T16:26:41.855Z,30.40
2022-12-16T16:29:30.793Z,33.15
2022-12-16T16:32:18.046Z,29.73
2022-12-16T16:35:05.360Z,30.67
2022-12-16T16:37:52.868Z,32.15
2022-12-16T16:40:47.879Z,32.75
2022-12-16T16:43:35.583Z,31.33
2022-12-16T16:46:23.616Z,29.23
2022-12-16T16:49:10.895Z,30.33
2022-12-16T16:51:58.160Z,30.48
2022-12-16T16:54:45.655Z,34.45
2022-12-16T16:57:34.076Z,34.58
2022-12-16T17:00:21.497Z,31.65
2022-12-16T17:03:08.952Z,29.95
2022-12-16T17:05:56.469Z,26.17
2022-12-16T17:08:43.706Z,25.65
2022-12-16T17:11:37.387Z,31.60
2022-12-16T17:14:24.817Z,27.52
2022-12-16T17:17:12.104Z,28.10
2022-12-16T17:19:59.411Z,28.88
2022-12-16T17:22:46.790Z,27.20
2022-12-16T17:25:34.486Z,27.30
2022-12-16T17:28:22.013Z,29.17
2022-12-16T17:31:09.493Z,29.48
2022-12-16T17:33:56.923Z,29.23
2022-12-16T17:36:44.297Z,32.22
2022-12-16T17:39:31.881Z,32.15
2022-12-16T17:42:19.149Z,33.10
2022-12-16T17:45:07.498Z,32.65
2022-12-16T17:47:54.723Z,31.35
2022-12-16T17:50:42.086Z,31.50
2022-12-16T17:53:29.372Z,30.15
2022-12-16T17:56:16.646Z,29.58
2022-12-16T17:59:05.826Z,28.48
2022-12-16T18:01:53.398Z,28.25
2022-12-16T18:04:40.865Z,25.95
2022-12-16T18:07:28.136Z,26.02
2022-12-16T18:10:15.435Z,26.75
2022-12-16T18:13:02.831Z,28.05
2022-12-16T18:15:50.195Z,27.02
2022-12-16T18:18:40.402Z,29.85
2022-12-16T18:21:36.208Z,29.23
2022-12-16T18:24:26.584Z,27.60
2022-12-16T18:27:14.107Z,31.52
2022-12-16T18:30:01.381Z,32.67
2022-12-16T18:32:48.642Z,30.98
2022-12-16T18:35:35.959Z,29.52
2022-12-16T18:38:23.300Z,30.88
2022-12-16T18:41:10.668Z,31.38
2022-12-16T18:43:57.929Z,33.85
2022-12-16T18:46:45.214Z,40.03
2022-12-16T18:49:32.452Z,35.47
2022-12-16T18:52:19.755Z,36.40
2022-12-16T18:55:06.985Z,34.58
2022-12-16T18:57:54.258Z,35.60
2022-12-16T19:00:41.682Z,33.22
2022-12-16T19:03:29.043Z,34.85
2022-12-16T19:06:17.017Z,32.30
2022-12-16T19:09:04.286Z,32.30
2022-12-16T19:11:51.632Z,35.53
2022-12-16T19:14:38.861Z,31.90
2022-12-16T19:17:26.103Z,32.47
2022-12-16T19:20:13.402Z,31.17
2022-12-16T19:23:00.768Z,31.83
2022-12-16T19:25:48.305Z,30.35
2022-12-16T19:28:36.826Z,30.27
2022-12-16T19:31:28.213Z,28.05
2022-12-16T19:34:19.804Z,28.70
2022-12-16T19:37:07.117Z,31.55
2022-12-16T19:39:56.772Z,32.03
2022-12-16T19:42:44.390Z,25.80
2022-12-16T19:45:31.734Z,28.48
2022-12-16T19:48:22.887Z,26.23
2022-12-16T19:51:10.194Z,26.70
2022-12-16T19:53:57.762Z,23.88
2022-12-16T19:56:45.534Z,24.08
2022-12-16T19:59:32.808Z,22.67
2022-12-16T20:02:20.120Z,22.70
2022-12-16T20:05:07.748Z,25.95
2022-12-16T20:07:56.333Z,21.10
2022-12-16T20:10:43.922Z,22.45
2022-12-16T20:13:32.185Z,25.52
2022-12-16T20:16:23.350Z,23.83
2022-12-16T20:19:10.653Z,23.52
2022-12-16T20:22:00.703Z,34.90
2022-12-16T20:24:52.016Z,28.05
2022-12-16T20:27:39.459Z,32.15
2022-12-16T20:30:27.168Z,36.17
2022-12-16T20:33:14.489Z,29.95
2022-12-16T20:36:02.133Z,28.42
2022-12-16T20:38:49.556Z,30.88
2022-12-16T20:41:37.004Z,33.20
2022-12-16T20:44:24.543Z,49.20
2022-12-16T20:47:12.067Z,45.38
2022-12-16T20:49:59.781Z,43.05
2022-12-16T20:52:47.491Z,43.15
2022-12-16T20:55:35.132Z,44.53
2022-12-16T20:58:22.633Z,50.75
2022-12-16T21:01:13.903Z,62.78
2022-12-16T21:04:01.620Z,114.95
2022-12-16T21:06:49.135Z,78.30
2022-12-16T21:09:36.503Z,62.50
2022-12-16T21:12:24.002Z,61.83
2022-12-16T21:15:11.312Z,63.25
2022-12-16T21:17:59.095Z,58.55
2022-12-16T21:20:46.444Z,44.53
2022-12-16T21:23:33.810Z,40.70
2022-12-16T21:26:21.136Z,37.47
2022-12-16T21:29:08.973Z,36.20
2022-12-16T21:31:56.767Z,36.00
2022-12-16T21:35:05.415Z,34.45
2022-12-16T21:37:53.190Z,37.63
2022-12-16T21:40:41.078Z,39.90
2022-12-16T21:43:28.443Z,37.33
2022-12-16T21:46:16.201Z,32.70
2022-12-16T21:49:03.850Z,35.83
2022-12-16T21:51:51.176Z,31.80
2022-12-16T21:54:39.232Z,33.15
2022-12-16T21:57:27.094Z,31.92
2022-12-16T22:00:20.400Z,28.40
2022-12-16T22:03:08.504Z,33.58
2022-12-16T22:05:56.929Z,33.08
2022-12-16T22:08:44.289Z,32.63
2022-12-16T22:11:32.108Z,33.70
2022-12-16T22:14:19.947Z,32.60
2022-12-16T22:17:07.785Z,31.60
2022-12-16T22:19:58.341Z,31.98
2022-12-16T22:22:46.106Z,30.25
2022-12-16T22:25:33.446Z,31.73
2022-12-16T22:28:20.848Z,31.17
2022-12-16T22:34:20.962Z,35.85
2022-12-16T22:37:08.235Z,35.88
2022-12-16T22:39:56.365Z,37.13
2022-12-16T22:42:43.985Z,34.65
2022-12-16T22:45:32.267Z,45.00
2022-12-16T22:48:20.099Z,45.22
2022-12-16T22:51:08.267Z,46.92
2022-12-16T22:53:56.409Z,50.95
2022-12-16T22:56:44.971Z,65.82
2022-12-16T22:59:33.621Z,46.75
2022-12-16T23:02:21.940Z,45.58
2022-12-16T23:05:09.540Z,47.45
2022-12-16T23:07:57.981Z,49.17
2022-12-16T23:10:45.610Z,49.80
2022-12-16T23:13:33.737Z,49.80
2022-12-16T23:16:21.139Z,49.95
2022-12-16T23:19:08.688Z,54.30
2022-12-16T23:21:59.951Z,56.30
2022-12-16T23:24:50.182Z,56.25
2022-12-16T23:27:38.284Z,55.85
2022-12-16T23:30:26.316Z,57.88
2022-12-16T23:32:30.621Z,32.28
2022-12-16T23:33:17.917Z,54.75
2022-12-16T23:36:05.319Z,57.15
2022-12-16T23:38:53.480Z,58.70
2022-12-16T23:41:41.007Z,57.33
2022-12-16T23:44:28.255Z,60.13
2022-12-16T23:47:15.624Z,59.58
2022-12-16T23:50:02.981Z,58.88
2022-12-16T23:52:50.228Z,57.40
2022-12-16T23:55:37.790Z,55.55
2022-12-16T23:58:26.050Z,52.65
